sensor_id;sensor_type;location;lat;lon;timestamp;P1;durP1;ratioP1;P2;durP2;ratioP2
10293;SDS011;5192;50.328;7.610;2022-08-18T00:00:06;16.35;;;14.80;;
10293;SDS011;5192;50.328;7.610;2022-08-18T00:02:43;16.13;;;14.73;;
10293;SDS011;5192;50.328;7.610;2022-08-18T00:05:10;16.92;;;14.88;;
10293;SDS011;5192;50.328;7.610;2022-08-18T00:07:41;16.52;;;15.02;;
10293;SDS011;5192;50.328;7.610;2022-08-18T00:10:08;17.10;;;15.48;;
10293;SDS011;5192;50.328;7.610;2022-08-18T00:12:36;16.88;;;15.38;;
10293;SDS011;5192;50.328;7.610;2022-08-18T00:15:12;17.50;;;15.97;;
10293;SDS011;5192;50.328;7.610;2022-08-18T00:17:48;16.63;;;14.93;;
10293;SDS011;5192;50.328;7.610;2022-08-18T00:20:17;15.55;;;14.25;;
10293;SDS011;5192;50.328;7.610;2022-08-18T00:22:46;15.73;;;14.32;;
10293;SDS011;5192;50.328;7.610;2022-08-18T00:25:12;16.95;;;15.25;;
10293;SDS011;5192;50.328;7.610;2022-08-18T00:27:41;16.23;;;14.70;;
10293;SDS011;5192;50.328;7.610;2022-08-18T00:30:11;15.20;;;13.90;;
10293;SDS011;5192;50.328;7.610;2022-08-18T00:32:58;15.93;;;14.32;;
10293;SDS011;5192;50.328;7.610;2022-08-18T00:38:11;16.05;;;14.68;;
10293;SDS011;5192;50.328;7.610;2022-08-18T00:40:38;15.90;;;14.57;;
10293;SDS011;5192;50.328;7.610;2022-08-18T00:43:20;16.08;;;14.57;;
10293;SDS011;5192;50.328;7.610;2022-08-18T00:46:08;17.33;;;15.70;;
10293;SDS011;5192;50.328;7.610;2022-08-18T00:48:38;16.30;;;15.00;;
10293;SDS011;5192;50.328;7.610;2022-08-18T00:51:09;16.02;;;14.60;;
10293;SDS011;5192;50.328;7.610;2022-08-18T00:54:11;16.20;;;14.60;;
10293;SDS011;5192;50.328;7.610;2022-08-18T00:56:52;15.83;;;14.30;;
10293;SDS011;5192;50.328;7.610;2022-08-18T01:02:24;16.63;;;15.13;;
10293;SDS011;5192;50.328;7.610;2022-08-18T01:05:05;17.17;;;15.57;;
10293;SDS011;5192;50.328;7.610;2022-08-18T01:07:40;16.20;;;14.70;;
10293;SDS011;5192;50.328;7.610;2022-08-18T01:10:10;16.47;;;15.07;;
10293;SDS011;5192;50.328;7.610;2022-08-18T01:12:44;16.37;;;14.90;;
10293;SDS011;5192;50.328;7.610;2022-08-18T01:15:13;17.63;;;15.93;;
10293;SDS011;5192;50.328;7.610;2022-08-18T01:17:44;17.10;;;15.57;;
10293;SDS011;5192;50.328;7.610;2022-08-18T01:20:32;17.57;;;15.80;;
10293;SDS011;5192;50.328;7.610;2022-08-18T01:23:45;17.13;;;15.57;;
10293;SDS011;5192;50.328;7.610;2022-08-18T01:26:13;17.20;;;15.53;;
10293;SDS011;5192;50.328;7.610;2022-08-18T01:28:41;17.10;;;15.60;;
10293;SDS011;5192;50.328;7.610;2022-08-18T01:31:11;17.00;;;15.47;;
10293;SDS011;5192;50.328;7.610;2022-08-18T01:33:53;17.20;;;15.60;;
10293;SDS011;5192;50.328;7.610;2022-08-18T01:36:23;17.27;;;15.63;;
10293;SDS011;5192;50.328;7.610;2022-08-18T01:38:50;16.87;;;15.43;;
10293;SDS011;5192;50.328;7.610;2022-08-18T01:41:21;16.97;;;15.47;;
10293;SDS011;5192;50.328;7.610;2022-08-18T01:43:48;16.13;;;14.73;;
10293;SDS011;5192;50.328;7.610;2022-08-18T01:46:17;17.43;;;15.63;;
10293;SDS011;5192;50.328;7.610;2022-08-18T01:48:50;16.67;;;15.17;;
10293;SDS011;5192;50.328;7.610;2022-08-18T01:51:18;16.43;;;15.03;;
10293;SDS011;5192;50.328;7.610;2022-08-18T01:53:46;17.40;;;15.80;;
10293;SDS011;5192;50.328;7.610;2022-08-18T01:56:14;17.97;;;16.20;;
10293;SDS011;5192;50.328;7.610;2022-08-18T01:58:42;17.00;;;15.50;;
10293;SDS011;5192;50.328;7.610;2022-08-18T02:01:14;17.17;;;15.67;;
10293;SDS011;5192;50.328;7.610;2022-08-18T02:03:42;17.60;;;15.90;;
10293;SDS011;5192;50.328;7.610;2022-08-18T02:06:23;17.07;;;15.63;;
10293;SDS011;5192;50.328;7.610;2022-08-18T02:08:49;16.83;;;15.33;;
10293;SDS011;5192;50.328;7.610;2022-08-18T02:11:15;16.53;;;15.10;;
10293;SDS011;5192;50.328;7.610;2022-08-18T02:13:42;16.63;;;15.20;;
10293;SDS011;5192;50.328;7.610;2022-08-18T02:16:09;15.83;;;14.43;;
10293;SDS011;5192;50.328;7.610;2022-08-18T02:18:35;18.60;;;16.90;;
10293;SDS011;5192;50.328;7.610;2022-08-18T02:21:08;17.57;;;15.90;;
10293;SDS011;5192;50.328;7.610;2022-08-18T02:23:41;17.33;;;15.73;;
10293;SDS011;5192;50.328;7.610;2022-08-18T02:26:11;17.43;;;15.77;;
10293;SDS011;5192;50.328;7.610;2022-08-18T02:28:40;17.13;;;15.60;;
10293;SDS011;5192;50.328;7.610;2022-08-18T02:31:09;17.67;;;15.97;;
10293;SDS011;5192;50.328;7.610;2022-08-18T02:33:42;18.50;;;16.80;;
10293;SDS011;5192;50.328;7.610;2022-08-18T02:36:11;16.40;;;15.00;;
10293;SDS011;5192;50.328;7.610;2022-08-18T02:38:40;17.30;;;15.53;;
10293;SDS011;5192;50.328;7.610;2022-08-18T02:41:09;17.30;;;15.77;;
10293;SDS011;5192;50.328;7.610;2022-08-18T02:43:38;18.20;;;16.53;;
10293;SDS011;5192;50.328;7.610;2022-08-18T02:46:07;18.97;;;17.13;;
10293;SDS011;5192;50.328;7.610;2022-08-18T02:48:33;18.60;;;16.90;;
10293;SDS011;5192;50.328;7.610;2022-08-18T02:51:09;17.77;;;16.13;;
10293;SDS011;5192;50.328;7.610;2022-08-18T02:53:38;16.93;;;15.33;;
10293;SDS011;5192;50.328;7.610;2022-08-18T02:56:10;17.63;;;15.93;;
10293;SDS011;5192;50.328;7.610;2022-08-18T02:58:58;18.07;;;16.33;;
10293;SDS011;5192;50.328;7.610;2022-08-18T03:01:33;18.30;;;16.70;;
10293;SDS011;5192;50.328;7.610;2022-08-18T03:04:12;17.67;;;16.07;;
10293;SDS011;5192;50.328;7.610;2022-08-18T03:06:51;16.40;;;14.90;;
10293;SDS011;5192;50.328;7.610;2022-08-18T03:09:18;17.40;;;15.90;;
10293;SDS011;5192;50.328;7.610;2022-08-18T03:11:47;17.30;;;15.77;;
10293;SDS011;5192;50.328;7.610;2022-08-18T03:14:14;16.83;;;15.33;;
10293;SDS011;5192;50.328;7.610;2022-08-18T03:16:43;16.47;;;14.87;;
10293;SDS011;5192;50.328;7.610;2022-08-18T03:19:12;15.80;;;14.33;;
10293;SDS011;5192;50.328;7.610;2022-08-18T03:21:45;15.87;;;14.47;;
10293;SDS011;5192;50.328;7.610;2022-08-18T03:24:11;15.73;;;14.27;;
10293;SDS011;5192;50.328;7.610;2022-08-18T03:26:39;16.37;;;14.77;;
10293;SDS011;5192;50.328;7.610;2022-08-18T03:29:07;15.43;;;14.03;;
10293;SDS011;5192;50.328;7.610;2022-08-18T03:31:35;16.23;;;14.80;;
10293;SDS011;5192;50.328;7.610;2022-08-18T03:34:03;16.17;;;14.70;;
10293;SDS011;5192;50.328;7.610;2022-08-18T03:36:34;17.17;;;15.47;;
10293;SDS011;5192;50.328;7.610;2022-08-18T03:39:08;16.40;;;14.90;;
10293;SDS011;5192;50.328;7.610;2022-08-18T03:41:36;18.07;;;16.27;;
10293;SDS011;5192;50.328;7.610;2022-08-18T03:44:04;18.67;;;16.87;;
10293;SDS011;5192;50.328;7.610;2022-08-18T03:46:31;17.53;;;16.03;;
10293;SDS011;5192;50.328;7.610;2022-08-18T03:48:57;18.67;;;17.03;;
10293;SDS011;5192;50.328;7.610;2022-08-18T03:51:25;17.70;;;15.93;;
10293;SDS011;5192;50.328;7.610;2022-08-18T03:53:54;18.50;;;16.80;;
10293;SDS011;5192;50.328;7.610;2022-08-18T03:56:27;19.90;;;18.00;;
10293;SDS011;5192;50.328;7.610;2022-08-18T03:59:01;19.50;;;17.70;;
10293;SDS011;5192;50.328;7.610;2022-08-18T04:01:36;20.63;;;18.70;;
10293;SDS011;5192;50.328;7.610;2022-08-18T04:04:11;19.20;;;17.47;;
10293;SDS011;5192;50.328;7.610;2022-08-18T04:06:44;19.83;;;18.03;;
10293;SDS011;5192;50.328;7.610;2022-08-18T04:09:23;20.90;;;18.80;;
10293;SDS011;5192;50.328;7.610;2022-08-18T04:11:51;20.83;;;18.95;;
10293;SDS011;5192;50.328;7.610;2022-08-18T04:14:18;21.20;;;19.10;;
10293;SDS011;5192;50.328;7.610;2022-08-18T04:16:47;20.23;;;18.37;;
10293;SDS011;5192;50.328;7.610;2022-08-18T04:19:14;19.37;;;17.47;;
10293;SDS011;5192;50.328;7.610;2022-08-18T04:21:42;22.57;;;20.37;;
10293;SDS011;5192;50.328;7.610;2022-08-18T04:24:12;23.17;;;20.97;;
10293;SDS011;5192;50.328;7.610;2022-08-18T04:26:40;21.77;;;19.67;;
10293;SDS011;5192;50.328;7.610;2022-08-18T04:29:08;22.50;;;20.40;;
10293;SDS011;5192;50.328;7.610;2022-08-18T04:31:35;20.60;;;18.70;;
10293;SDS011;5192;50.328;7.610;2022-08-18T04:34:12;20.47;;;18.53;;
10293;SDS011;5192;50.328;7.610;2022-08-18T04:36:39;19.80;;;17.85;;
10293;SDS011;5192;50.328;7.610;2022-08-18T04:39:06;20.53;;;18.53;;
10293;SDS011;5192;50.328;7.610;2022-08-18T04:41:35;20.93;;;18.93;;
10293;SDS011;5192;50.328;7.610;2022-08-18T04:44:05;24.40;;;22.07;;
10293;SDS011;5192;50.328;7.610;2022-08-18T04:46:36;22.93;;;20.67;;
10293;SDS011;5192;50.328;7.610;2022-08-18T04:49:08;22.33;;;19.83;;
10293;SDS011;5192;50.328;7.610;2022-08-18T04:51:34;24.40;;;22.00;;
10293;SDS011;5192;50.328;7.610;2022-08-18T04:54:04;22.73;;;20.52;;
10293;SDS011;5192;50.328;7.610;2022-08-18T04:56:33;22.37;;;20.23;;
10293;SDS011;5192;50.328;7.610;2022-08-18T04:59:12;24.87;;;21.23;;
10293;SDS011;5192;50.328;7.610;2022-08-18T05:01:46;20.33;;;18.40;;
10293;SDS011;5192;50.328;7.610;2022-08-18T05:04:13;22.93;;;20.63;;
10293;SDS011;5192;50.328;7.610;2022-08-18T05:06:41;23.73;;;21.20;;
10293;SDS011;5192;50.328;7.610;2022-08-18T05:09:10;23.40;;;21.00;;
10293;SDS011;5192;50.328;7.610;2022-08-18T05:11:40;25.80;;;23.20;;
10293;SDS011;5192;50.328;7.610;2022-08-18T05:14:08;24.47;;;22.17;;
10293;SDS011;5192;50.328;7.610;2022-08-18T05:16:38;27.13;;;24.37;;
10293;SDS011;5192;50.328;7.610;2022-08-18T05:19:05;27.73;;;24.93;;
10293;SDS011;5192;50.328;7.610;2022-08-18T05:21:34;27.50;;;24.60;;
10293;SDS011;5192;50.328;7.610;2022-08-18T05:24:08;28.17;;;25.37;;
10293;SDS011;5192;50.328;7.610;2022-08-18T05:26:36;27.13;;;24.43;;
10293;SDS011;5192;50.328;7.610;2022-08-18T05:29:02;28.53;;;25.63;;
10293;SDS011;5192;50.328;7.610;2022-08-18T05:31:29;26.67;;;24.03;;
10293;SDS011;5192;50.328;7.610;2022-08-18T05:33:56;29.47;;;26.47;;
10293;SDS011;5192;50.328;7.610;2022-08-18T05:44:40;29.13;;;26.03;;
10293;SDS011;5192;50.328;7.610;2022-08-18T05:47:29;30.08;;;26.95;;
10293;SDS011;5192;50.328;7.610;2022-08-18T05:49:57;31.47;;;28.10;;
10293;SDS011;5192;50.328;7.610;2022-08-18T05:55:43;29.43;;;26.47;;
10293;SDS011;5192;50.328;7.610;2022-08-18T05:58:45;30.27;;;27.17;;
10293;SDS011;5192;50.328;7.610;2022-08-18T06:01:16;29.93;;;26.83;;
10293;SDS011;5192;50.328;7.610;2022-08-18T06:07:10;31.63;;;28.33;;
10293;SDS011;5192;50.328;7.610;2022-08-18T06:12:20;31.80;;;28.53;;
10293;SDS011;5192;50.328;7.610;2022-08-18T06:14:53;33.50;;;30.10;;
10293;SDS011;5192;50.328;7.610;2022-08-18T06:27:13;31.37;;;28.27;;
10293;SDS011;5192;50.328;7.610;2022-08-18T06:30:04;33.77;;;30.27;;
10293;SDS011;5192;50.328;7.610;2022-08-18T06:33:48;31.83;;;28.33;;
10293;SDS011;5192;50.328;7.610;2022-08-18T06:35:58;34.87;;;31.27;;
10293;SDS011;5192;50.328;7.610;2022-08-18T06:41:46;36.57;;;32.77;;
10293;SDS011;5192;50.328;7.610;2022-08-18T06:44:16;36.53;;;32.83;;
10293;SDS011;5192;50.328;7.610;2022-08-18T06:46:54;34.87;;;31.20;;
10293;SDS011;5192;50.328;7.610;2022-08-18T06:49:42;36.87;;;32.97;;
10293;SDS011;5192;50.328;7.610;2022-08-18T06:52:28;36.13;;;32.23;;
10293;SDS011;5192;50.328;7.610;2022-08-18T06:55:17;36.17;;;32.30;;
10293;SDS011;5192;50.328;7.610;2022-08-18T07:00:43;36.80;;;33.10;;
10293;SDS011;5192;50.328;7.610;2022-08-18T07:03:23;33.63;;;30.10;;
10293;SDS011;5192;50.328;7.610;2022-08-18T07:09:24;33.67;;;30.30;;
10293;SDS011;5192;50.328;7.610;2022-08-18T07:12:00;34.40;;;31.00;;
10293;SDS011;5192;50.328;7.610;2022-08-18T07:14:49;34.17;;;30.60;;
10293;SDS011;5192;50.328;7.610;2022-08-18T07:17:20;35.05;;;31.17;;
10293;SDS011;5192;50.328;7.610;2022-08-18T07:19:57;36.13;;;32.28;;
10293;SDS011;5192;50.328;7.610;2022-08-18T07:22:26;38.27;;;34.37;;
10293;SDS011;5192;50.328;7.610;2022-08-18T07:24:54;36.05;;;32.30;;
10293;SDS011;5192;50.328;7.610;2022-08-18T07:27:43;36.58;;;32.70;;
10293;SDS011;5192;50.328;7.610;2022-08-18T07:30:24;36.63;;;32.75;;
10293;SDS011;5192;50.328;7.610;2022-08-18T07:33:15;35.65;;;32.05;;
10293;SDS011;5192;50.328;7.610;2022-08-18T07:36:00;39.67;;;35.47;;
10293;SDS011;5192;50.328;7.610;2022-08-18T07:44:13;38.50;;;34.25;;
10293;SDS011;5192;50.328;7.610;2022-08-18T07:47:09;37.20;;;33.35;;
10293;SDS011;5192;50.328;7.610;2022-08-18T07:49:51;37.88;;;33.40;;
10293;SDS011;5192;50.328;7.610;2022-08-18T07:52:27;38.80;;;34.60;;
10293;SDS011;5192;50.328;7.610;2022-08-18T08:04:22;38.40;;;34.20;;
10293;SDS011;5192;50.328;7.610;2022-08-18T08:21:52;41.10;;;36.50;;
10293;SDS011;5192;50.328;7.610;2022-08-18T08:30:35;42.47;;;37.87;;
10293;SDS011;5192;50.328;7.610;2022-08-18T08:36:06;44.07;;;39.27;;
10293;SDS011;5192;50.328;7.610;2022-08-18T08:41:53;47.85;;;40.60;;
10293;SDS011;5192;50.328;7.610;2022-08-18T08:44:51;52.92;;;43.25;;
10293;SDS011;5192;50.328;7.610;2022-08-18T08:50:18;52.80;;;42.43;;
10293;SDS011;5192;50.328;7.610;2022-08-18T08:53:07;56.00;;;46.67;;
10293;SDS011;5192;50.328;7.610;2022-08-18T08:55:55;56.03;;;45.75;;
10293;SDS011;5192;50.328;7.610;2022-08-18T09:22:51;57.17;;;44.42;;
10293;SDS011;5192;50.328;7.610;2022-08-18T09:42:34;42.30;;;37.35;;
10293;SDS011;5192;50.328;7.610;2022-08-18T09:54:17;37.30;;;33.33;;
10293;SDS011;5192;50.328;7.610;2022-08-18T09:57:19;43.20;;;37.70;;
10293;SDS011;5192;50.328;7.610;2022-08-18T10:07:46;41.80;;;36.22;;
10293;SDS011;5192;50.328;7.610;2022-08-18T10:10:44;38.30;;;34.05;;
10293;SDS011;5192;50.328;7.610;2022-08-18T10:16:43;37.95;;;33.88;;
10293;SDS011;5192;50.328;7.610;2022-08-18T10:25:31;36.78;;;32.88;;
10293;SDS011;5192;50.328;7.610;2022-08-18T10:28:51;37.13;;;33.28;;
10293;SDS011;5192;50.328;7.610;2022-08-18T10:31:17;38.13;;;33.97;;
10293;SDS011;5192;50.328;7.610;2022-08-18T10:36:45;34.03;;;30.48;;
10293;SDS011;5192;50.328;7.610;2022-08-18T10:39:13;33.38;;;29.85;;
10293;SDS011;5192;50.328;7.610;2022-08-18T10:45:18;33.85;;;30.52;;
10293;SDS011;5192;50.328;7.610;2022-08-18T10:50:48;31.40;;;28.30;;
10293;SDS011;5192;50.328;7.610;2022-08-18T10:53:34;35.72;;;32.03;;
10293;SDS011;5192;50.328;7.610;2022-08-18T10:59:02;32.97;;;29.63;;
10293;SDS011;5192;50.328;7.610;2022-08-18T11:04:43;33.45;;;30.13;;
10293;SDS011;5192;50.328;7.610;2022-08-18T11:07:22;32.50;;;29.23;;
10293;SDS011;5192;50.328;7.610;2022-08-18T11:09:55;34.35;;;31.02;;
10293;SDS011;5192;50.328;7.610;2022-08-18T11:18:28;38.30;;;34.15;;
10293;SDS011;5192;50.328;7.610;2022-08-18T11:24:14;39.17;;;34.42;;
10293;SDS011;5192;50.328;7.610;2022-08-18T11:27:01;40.47;;;36.08;;
10293;SDS011;5192;50.328;7.610;2022-08-18T11:29:52;43.63;;;38.33;;
10293;SDS011;5192;50.328;7.610;2022-08-18T11:34:51;45.20;;;38.40;;
10293;SDS011;5192;50.328;7.610;2022-08-18T11:37:43;49.60;;;41.63;;
10293;SDS011;5192;50.328;7.610;2022-08-18T11:43:25;45.20;;;38.72;;
10293;SDS011;5192;50.328;7.610;2022-08-18T11:46:01;40.03;;;34.63;;
10293;SDS011;5192;50.328;7.610;2022-08-18T11:48:54;39.25;;;33.40;;
10293;SDS011;5192;50.328;7.610;2022-08-18T11:54:22;43.30;;;33.60;;
10293;SDS011;5192;50.328;7.610;2022-08-18T12:06:18;38.83;;;31.60;;
10293;SDS011;5192;50.328;7.610;2022-08-18T12:08:55;35.15;;;30.02;;
10293;SDS011;5192;50.328;7.610;2022-08-18T12:11:35;34.58;;;30.60;;
10293;SDS011;5192;50.328;7.610;2022-08-18T12:14:18;35.83;;;30.15;;
10293;SDS011;5192;50.328;7.610;2022-08-18T12:16:47;34.78;;;30.38;;
10293;SDS011;5192;50.328;7.610;2022-08-18T12:19:24;34.92;;;29.95;;
10293;SDS011;5192;50.328;7.610;2022-08-18T12:22:11;34.33;;;29.60;;
10293;SDS011;5192;50.328;7.610;2022-08-18T12:24:45;34.92;;;29.98;;
10293;SDS011;5192;50.328;7.610;2022-08-18T12:27:13;31.73;;;27.85;;
10293;SDS011;5192;50.328;7.610;2022-08-18T12:29:44;30.90;;;27.60;;
10293;SDS011;5192;50.328;7.610;2022-08-18T12:32:12;35.42;;;31.00;;
10293;SDS011;5192;50.328;7.610;2022-08-18T12:34:44;32.45;;;28.95;;
10293;SDS011;5192;50.328;7.610;2022-08-18T12:37:13;32.17;;;28.27;;
10293;SDS011;5192;50.328;7.610;2022-08-18T12:39:44;33.95;;;29.33;;
10293;SDS011;5192;50.328;7.610;2022-08-18T12:42:13;28.33;;;24.92;;
10293;SDS011;5192;50.328;7.610;2022-08-18T12:44:45;30.70;;;27.33;;
10293;SDS011;5192;50.328;7.610;2022-08-18T12:47:12;30.63;;;27.42;;
10293;SDS011;5192;50.328;7.610;2022-08-18T12:49:44;29.95;;;26.60;;
10293;SDS011;5192;50.328;7.610;2022-08-18T12:52:12;30.00;;;26.85;;
10293;SDS011;5192;50.328;7.610;2022-08-18T12:54:45;28.58;;;25.63;;
10293;SDS011;5192;50.328;7.610;2022-08-18T12:57:25;29.13;;;26.02;;
10293;SDS011;5192;50.328;7.610;2022-08-18T12:59:52;28.98;;;25.98;;
10293;SDS011;5192;50.328;7.610;2022-08-18T13:02:23;29.85;;;26.00;;
10293;SDS011;5192;50.328;7.610;2022-08-18T13:04:50;29.15;;;26.05;;
10293;SDS011;5192;50.328;7.610;2022-08-18T13:07:16;32.42;;;28.23;;
10293;SDS011;5192;50.328;7.610;2022-08-18T13:09:48;27.50;;;24.60;;
10293;SDS011;5192;50.328;7.610;2022-08-18T13:12:14;27.77;;;24.67;;
10293;SDS011;5192;50.328;7.610;2022-08-18T13:14:43;26.25;;;23.45;;
10293;SDS011;5192;50.328;7.610;2022-08-18T13:17:11;25.73;;;23.02;;
10293;SDS011;5192;50.328;7.610;2022-08-18T13:19:44;26.80;;;23.88;;
10293;SDS011;5192;50.328;7.610;2022-08-18T13:22:11;27.92;;;24.92;;
10293;SDS011;5192;50.328;7.610;2022-08-18T13:24:43;26.17;;;23.38;;
10293;SDS011;5192;50.328;7.610;2022-08-18T13:27:08;26.73;;;23.95;;
10293;SDS011;5192;50.328;7.610;2022-08-18T13:29:34;27.58;;;24.80;;
10293;SDS011;5192;50.328;7.610;2022-08-18T13:32:02;27.85;;;24.85;;
10293;SDS011;5192;50.328;7.610;2022-08-18T13:34:33;29.10;;;26.10;;
10293;SDS011;5192;50.328;7.610;2022-08-18T13:37:14;30.48;;;26.60;;
10293;SDS011;5192;50.328;7.610;2022-08-18T13:39:43;27.63;;;24.27;;
10293;SDS011;5192;50.328;7.610;2022-08-18T13:42:09;32.95;;;27.98;;
10293;SDS011;5192;50.328;7.610;2022-08-18T13:44:36;30.73;;;26.85;;
10293;SDS011;5192;50.328;7.610;2022-08-18T13:47:11;29.38;;;26.40;;
10293;SDS011;5192;50.328;7.610;2022-08-18T13:49:40;26.15;;;23.35;;
10293;SDS011;5192;50.328;7.610;2022-08-18T13:52:12;22.80;;;20.50;;
10293;SDS011;5192;50.328;7.610;2022-08-18T13:54:43;25.23;;;22.65;;
10293;SDS011;5192;50.328;7.610;2022-08-18T13:57:13;23.95;;;20.75;;
10293;SDS011;5192;50.328;7.610;2022-08-18T13:59:43;21.92;;;19.63;;
10293;SDS011;5192;50.328;7.610;2022-08-18T14:02:27;21.48;;;19.38;;
10293;SDS011;5192;50.328;7.610;2022-08-18T14:05:04;20.77;;;18.67;;
10293;SDS011;5192;50.328;7.610;2022-08-18T14:07:54;21.00;;;18.80;;
10293;SDS011;5192;50.328;7.610;2022-08-18T14:10:22;21.10;;;19.02;;
10293;SDS011;5192;50.328;7.610;2022-08-18T14:12:51;19.08;;;17.17;;
10293;SDS011;5192;50.328;7.610;2022-08-18T14:15:22;18.33;;;16.50;;
10293;SDS011;5192;50.328;7.610;2022-08-18T14:17:54;17.15;;;15.55;;
10293;SDS011;5192;50.328;7.610;2022-08-18T14:20:25;18.95;;;16.80;;
10293;SDS011;5192;50.328;7.610;2022-08-18T14:23:15;19.90;;;17.92;;
10293;SDS011;5192;50.328;7.610;2022-08-18T14:26:05;18.17;;;16.35;;
10293;SDS011;5192;50.328;7.610;2022-08-18T14:28:55;19.33;;;17.35;;
10293;SDS011;5192;50.328;7.610;2022-08-18T14:31:23;23.27;;;21.05;;
10293;SDS011;5192;50.328;7.610;2022-08-18T14:33:54;20.85;;;18.75;;
10293;SDS011;5192;50.328;7.610;2022-08-18T14:36:22;20.83;;;18.73;;
10293;SDS011;5192;50.328;7.610;2022-08-18T14:38:48;20.17;;;18.27;;
10293;SDS011;5192;50.328;7.610;2022-08-18T14:41:15;23.05;;;20.85;;
10293;SDS011;5192;50.328;7.610;2022-08-18T14:43:44;22.88;;;20.65;;
10293;SDS011;5192;50.328;7.610;2022-08-18T14:46:10;22.98;;;20.73;;
10293;SDS011;5192;50.328;7.610;2022-08-18T14:48:43;21.48;;;19.27;;
10293;SDS011;5192;50.328;7.610;2022-08-18T14:51:10;20.83;;;18.92;;
10293;SDS011;5192;50.328;7.610;2022-08-18T14:53:36;22.48;;;20.25;;
10293;SDS011;5192;50.328;7.610;2022-08-18T14:56:09;21.65;;;19.55;;
10293;SDS011;5192;50.328;7.610;2022-08-18T14:58:36;21.77;;;19.73;;
10293;SDS011;5192;50.328;7.610;2022-08-18T15:01:07;22.52;;;20.33;;
10293;SDS011;5192;50.328;7.610;2022-08-18T15:03:43;23.33;;;21.13;;
10293;SDS011;5192;50.328;7.610;2022-08-18T15:06:10;23.20;;;20.92;;
10293;SDS011;5192;50.328;7.610;2022-08-18T15:08:36;24.02;;;21.52;;
10293;SDS011;5192;50.328;7.610;2022-08-18T15:11:05;21.58;;;19.58;;
10293;SDS011;5192;50.328;7.610;2022-08-18T15:13:32;21.10;;;19.00;;
10293;SDS011;5192;50.328;7.610;2022-08-18T15:16:04;22.20;;;19.88;;
10293;SDS011;5192;50.328;7.610;2022-08-18T15:18:46;21.30;;;19.40;;
10293;SDS011;5192;50.328;7.610;2022-08-18T15:21:13;20.55;;;18.55;;
10293;SDS011;5192;50.328;7.610;2022-08-18T15:24:05;20.65;;;18.48;;
10293;SDS011;5192;50.328;7.610;2022-08-18T15:26:54;19.23;;;17.33;;
10293;SDS011;5192;50.328;7.610;2022-08-18T15:29:24;19.08;;;17.27;;
10293;SDS011;5192;50.328;7.610;2022-08-18T15:31:51;19.52;;;17.73;;
10293;SDS011;5192;50.328;7.610;2022-08-18T15:34:24;20.10;;;18.00;;
10293;SDS011;5192;50.328;7.610;2022-08-18T15:36:49;20.67;;;18.58;;
10293;SDS011;5192;50.328;7.610;2022-08-18T15:39:17;19.15;;;17.35;;
10293;SDS011;5192;50.328;7.610;2022-08-18T15:41:48;19.52;;;17.77;;
10293;SDS011;5192;50.328;7.610;2022-08-18T15:44:16;18.08;;;16.35;;
10293;SDS011;5192;50.328;7.610;2022-08-18T15:46:50;18.10;;;16.40;;
10293;SDS011;5192;50.328;7.610;2022-08-18T15:49:17;18.33;;;16.63;;
10293;SDS011;5192;50.328;7.610;2022-08-18T15:51:49;18.65;;;16.77;;
10293;SDS011;5192;50.328;7.610;2022-08-18T15:54:17;18.60;;;16.90;;
10293;SDS011;5192;50.328;7.610;2022-08-18T15:56:50;20.40;;;18.50;;
10293;SDS011;5192;50.328;7.610;2022-08-18T15:59:17;18.98;;;17.27;;
10293;SDS011;5192;50.328;7.610;2022-08-18T16:01:51;18.85;;;17.15;;
10293;SDS011;5192;50.328;7.610;2022-08-18T16:04:17;19.95;;;18.08;;
10293;SDS011;5192;50.328;7.610;2022-08-18T16:06:43;18.52;;;16.92;;
10293;SDS011;5192;50.328;7.610;2022-08-18T16:09:13;18.75;;;17.05;;
10293;SDS011;5192;50.328;7.610;2022-08-18T16:11:39;19.25;;;17.35;;
10293;SDS011;5192;50.328;7.610;2022-08-18T16:14:05;20.55;;;18.55;;
10293;SDS011;5192;50.328;7.610;2022-08-18T16:16:34;18.75;;;17.15;;
10293;SDS011;5192;50.328;7.610;2022-08-18T16:19:01;20.45;;;18.63;;
10293;SDS011;5192;50.328;7.610;2022-08-18T16:21:28;19.65;;;17.70;;
10293;SDS011;5192;50.328;7.610;2022-08-18T16:23:55;17.80;;;16.25;;
10293;SDS011;5192;50.328;7.610;2022-08-18T16:26:22;17.98;;;16.38;;
10293;SDS011;5192;50.328;7.610;2022-08-18T16:28:49;20.05;;;18.25;;
10293;SDS011;5192;50.328;7.610;2022-08-18T16:31:16;18.73;;;17.13;;
10293;SDS011;5192;50.328;7.610;2022-08-18T16:33:45;17.77;;;16.17;;
10293;SDS011;5192;50.328;7.610;2022-08-18T16:36:10;17.63;;;15.98;;
10293;SDS011;5192;50.328;7.610;2022-08-18T16:38:39;17.27;;;15.68;;
10293;SDS011;5192;50.328;7.610;2022-08-18T16:41:09;18.67;;;17.02;;
10293;SDS011;5192;50.328;7.610;2022-08-18T16:43:39;18.45;;;16.80;;
10293;SDS011;5192;50.328;7.610;2022-08-18T16:46:10;18.23;;;16.55;;
10293;SDS011;5192;50.328;7.610;2022-08-18T16:48:39;18.67;;;17.02;;
10293;SDS011;5192;50.328;7.610;2022-08-18T16:51:05;17.65;;;16.10;;
10293;SDS011;5192;50.328;7.610;2022-08-18T16:53:37;18.90;;;17.08;;
10293;SDS011;5192;50.328;7.610;2022-08-18T16:56:02;20.27;;;18.35;;
10293;SDS011;5192;50.328;7.610;2022-08-18T16:58:29;19.70;;;18.00;;
10293;SDS011;5192;50.328;7.610;2022-08-18T17:01:14;19.08;;;17.30;;
10293;SDS011;5192;50.328;7.610;2022-08-18T17:04:00;19.83;;;17.92;;
10293;SDS011;5192;50.328;7.610;2022-08-18T17:06:34;18.38;;;16.67;;
10293;SDS011;5192;50.328;7.610;2022-08-18T17:09:02;20.58;;;18.77;;
10293;SDS011;5192;50.328;7.610;2022-08-18T17:11:29;19.95;;;18.25;;
10293;SDS011;5192;50.328;7.610;2022-08-18T17:13:56;19.20;;;17.60;;
10293;SDS011;5192;50.328;7.610;2022-08-18T17:16:24;18.73;;;17.05;;
10293;SDS011;5192;50.328;7.610;2022-08-18T17:18:52;18.67;;;17.05;;
10293;SDS011;5192;50.328;7.610;2022-08-18T17:21:20;17.23;;;15.68;;
10293;SDS011;5192;50.328;7.610;2022-08-18T17:23:48;18.70;;;17.10;;
10293;SDS011;5192;50.328;7.610;2022-08-18T17:26:16;18.92;;;17.15;;
10293;SDS011;5192;50.328;7.610;2022-08-18T17:28:49;19.98;;;18.05;;
10293;SDS011;5192;50.328;7.610;2022-08-18T17:31:22;20.17;;;18.30;;
10293;SDS011;5192;50.328;7.610;2022-08-18T17:33:49;19.80;;;17.98;;
10293;SDS011;5192;50.328;7.610;2022-08-18T17:36:20;18.23;;;16.58;;
10293;SDS011;5192;50.328;7.610;2022-08-18T17:39:01;18.50;;;16.80;;
10293;SDS011;5192;50.328;7.610;2022-08-18T17:41:32;20.50;;;18.48;;
10293;SDS011;5192;50.328;7.610;2022-08-18T17:44:23;20.80;;;18.85;;
10293;SDS011;5192;50.328;7.610;2022-08-18T17:46:53;20.33;;;18.52;;
10293;SDS011;5192;50.328;7.610;2022-08-18T17:52:13;19.92;;;18.08;;
10293;SDS011;5192;50.328;7.610;2022-08-18T17:54:40;20.83;;;19.02;;
10293;SDS011;5192;50.328;7.610;2022-08-18T17:57:14;20.10;;;18.27;;
10293;SDS011;5192;50.328;7.610;2022-08-18T18:02:19;21.50;;;19.50;;
10293;SDS011;5192;50.328;7.610;2022-08-18T18:04:53;22.20;;;19.92;;
10293;SDS011;5192;50.328;7.610;2022-08-18T18:07:24;18.83;;;17.23;;
10293;SDS011;5192;50.328;7.610;2022-08-18T18:10:04;19.05;;;17.35;;
10293;SDS011;5192;50.328;7.610;2022-08-18T18:12:32;20.40;;;18.40;;
10293;SDS011;5192;50.328;7.610;2022-08-18T18:15:02;21.33;;;19.38;;
10293;SDS011;5192;50.328;7.610;2022-08-18T18:17:39;21.98;;;20.08;;
10293;SDS011;5192;50.328;7.610;2022-08-18T18:25:54;23.00;;;20.85;;
10293;SDS011;5192;50.328;7.610;2022-08-18T18:28:27;23.13;;;20.73;;
10293;SDS011;5192;50.328;7.610;2022-08-18T18:31:00;22.80;;;20.63;;
10293;SDS011;5192;50.328;7.610;2022-08-18T18:33:59;22.27;;;20.27;;
10293;SDS011;5192;50.328;7.610;2022-08-18T18:37:22;21.48;;;19.60;;